KAIZ/AIZ METAR and TAF weather

Enter ICAO airport designator
Station Type Date Time Source
KAIZ METAR 2019/10/16 18:56 UTC NOAA

KAIZ 161856Z AUTO 34007KT 300V360 10SM OVC030 10/03 A3018 RMK AO2 SLP219 T01000033


Station Type Date Time Source
KAIZ Decoded METAR 2019/10/16 18:56 UTC NOAA

Kaiser Lake Ozark, Lee C Fine Memorial Airport, MO, United States (KAIZ) 38-06N 092-33W
Oct 16, 2019 - 02:56 PM EDT / 2019.10.16 1856 UTC
Wind: from the NNW (340 degrees) at 8 MPH (7 KT) (direction variable):0
Visibility: 10 mile(s):0
Sky conditions: overcast
Temperature: 50.0 F (10.0 C)
Dew Point: 37.9 F (3.3 C)
Relative Humidity: 63%
Pressure (altimeter): 30.18 in. Hg (1022 hPa)
ob: KAIZ 161856Z AUTO 34007KT 300V360 10SM OVC030 10/03 A3018 RMK AO2 SLP219 T01000033
cycle: 19

Station Type Date Time Source
KAIZ TAF UTC NOAA

Error!

Example: see airport list